createdAt,value
2023-05-21T00:17:19.044Z,12.66
2023-05-21T00:27:22.886Z,12.45
2023-05-21T00:37:29.197Z,12.46
2023-05-21T00:47:33.661Z,12.38
2023-05-21T00:57:38.571Z,12.10
2023-05-21T01:07:42.874Z,11.88
2023-05-21T01:17:51.070Z,12.23
2023-05-21T01:27:55.999Z,12.71
2023-05-21T01:38:12.281Z,13.04
2023-05-21T01:48:17.391Z,13.32
2023-05-21T01:58:22.312Z,13.48
2023-05-21T02:08:26.866Z,13.59
2023-05-21T02:18:30.344Z,13.60
2023-05-21T02:28:35.606Z,13.59
2023-05-21T02:38:40.056Z,13.57
2023-05-21T02:48:43.903Z,13.57
2023-05-21T02:58:47.408Z,13.58
2023-05-21T03:08:50.983Z,13.64
2023-05-21T03:18:54.620Z,13.66
2023-05-21T03:28:58.572Z,13.84
2023-05-21T03:39:03.182Z,14.84
2023-05-21T03:49:10.103Z,15.76
2023-05-21T03:59:14.358Z,16.32
2023-05-21T04:09:17.978Z,16.83
2023-05-21T04:29:29.462Z,18.83
2023-05-21T04:39:34.168Z,19.42
2023-05-21T04:49:37.874Z,19.45
2023-05-21T04:59:43.449Z,19.37
2023-05-21T05:09:47.112Z,19.58
2023-05-21T05:19:50.934Z,19.65
2023-05-21T05:29:54.480Z,19.44
2023-05-21T05:39:58.271Z,19.53
2023-05-21T05:50:01.807Z,20.08
2023-05-21T06:00:09.967Z,20.47
2023-05-21T06:10:17.010Z,20.89
2023-05-21T06:20:24.525Z,21.72
2023-05-21T06:30:27.529Z,21.70
2023-05-21T06:40:31.260Z,21.84
2023-05-21T06:50:35.324Z,22.48
2023-05-21T07:00:39.100Z,22.68
2023-05-21T07:10:43.262Z,22.53
2023-05-21T07:20:47.541Z,22.38
2023-05-21T07:30:51.309Z,22.71
2023-05-21T07:40:55.089Z,22.49
2023-05-21T07:51:03.712Z,22.42
2023-05-21T08:01:06.939Z,22.40
2023-05-21T08:11:10.699Z,22.24
2023-05-21T08:21:18.214Z,22.57
2023-05-21T08:31:20.698Z,22.76
2023-05-21T08:41:36.868Z,22.92
2023-05-21T08:51:41.319Z,22.97
2023-05-21T09:01:46.444Z,23.44
2023-05-21T09:11:55.068Z,23.55
2023-05-21T09:22:01.591Z,23.43
2023-05-21T09:32:07.742Z,23.31
2023-05-21T09:42:11.599Z,23.56
2023-05-21T09:52:23.401Z,23.65
2023-05-21T10:02:27.936Z,23.82
2023-05-21T10:12:33.511Z,23.91
2023-05-21T10:22:37.972Z,24.17
2023-05-21T10:32:47.733Z,24.27
2023-05-21T10:43:18.670Z,24.33
2023-05-21T10:53:25.323Z,24.57
2023-05-21T11:03:35.793Z,24.71
2023-05-21T11:13:48.226Z,24.64
2023-05-21T11:23:52.868Z,24.93
2023-05-21T11:34:11.977Z,24.92
2023-05-21T11:44:19.330Z,25.02
2023-05-21T11:54:27.726Z,25.25
2023-05-21T12:04:30.963Z,25.34
2023-05-21T12:14:33.975Z,25.20
2023-05-21T12:24:38.992Z,25.07
2023-05-21T12:34:44.983Z,25.25
2023-05-21T12:44:49.207Z,25.25
2023-05-21T12:54:54.405Z,25.33
2023-05-21T13:04:59.755Z,25.39
2023-05-21T13:15:06.216Z,25.22
2023-05-21T13:25:33.996Z,25.15
2023-05-21T13:35:37.694Z,25.00
2023-05-21T13:45:41.349Z,24.86
2023-05-21T13:55:44.992Z,25.04
2023-05-21T14:05:53.066Z,25.05
2023-05-21T14:15:56.752Z,25.02
2023-05-21T14:26:00.640Z,24.83
2023-05-21T14:36:03.892Z,24.81
2023-05-21T14:46:07.720Z,24.96
2023-05-21T14:56:11.689Z,24.88
2023-05-21T15:06:19.279Z,24.49
2023-05-21T15:16:22.629Z,24.41
2023-05-21T15:26:30.266Z,24.07
2023-05-21T15:36:34.345Z,23.74
2023-05-21T15:46:37.685Z,23.82
2023-05-21T15:56:43.301Z,23.81
2023-05-21T16:06:47.240Z,23.65
2023-05-21T16:16:54.399Z,23.59
2023-05-21T16:26:58.765Z,23.52
2023-05-21T16:37:02.574Z,23.31
2023-05-21T16:47:06.083Z,23.12
2023-05-21T16:57:10.039Z,22.89
2023-05-21T17:07:15.224Z,22.64
2023-05-21T17:17:18.829Z,22.39
2023-05-21T17:27:22.551Z,22.13
2023-05-21T17:37:26.263Z,21.89
2023-05-21T17:47:29.948Z,21.58
2023-05-21T17:57:33.470Z,21.29
2023-05-21T18:07:37.302Z,21.02
2023-05-21T18:17:50.597Z,20.71
2023-05-21T18:27:54.305Z,20.39
2023-05-21T18:38:00.528Z,20.09
2023-05-21T18:48:04.079Z,19.78
2023-05-21T18:58:32.608Z,19.48
2023-05-21T19:08:36.330Z,19.20
2023-05-21T19:18:48.170Z,18.99
2023-05-21T19:28:51.597Z,18.73
2023-05-21T19:38:58.314Z,18.45
2023-05-21T19:49:01.962Z,18.22
2023-05-21T19:59:05.781Z,17.91
2023-05-21T20:09:09.498Z,17.64
2023-05-21T20:19:14.669Z,17.43
2023-05-21T20:29:18.679Z,17.27
2023-05-21T20:39:47.744Z,17.06
2023-05-21T20:49:53.305Z,16.92
2023-05-21T20:59:57.342Z,16.70
2023-05-21T21:10:01.660Z,16.48
2023-05-21T21:20:07.867Z,16.31
2023-05-21T21:30:14.907Z,16.15
2023-05-21T21:40:17.857Z,15.98
2023-05-21T21:50:21.842Z,15.79
2023-05-21T22:00:25.852Z,15.63
2023-05-21T22:10:37.532Z,15.49
2023-05-21T22:20:45.906Z,15.43
2023-05-21T22:30:49.661Z,15.29
2023-05-21T22:40:53.517Z,15.19
2023-05-21T22:50:58.129Z,15.09
2023-05-21T23:01:02.764Z,14.95
2023-05-21T23:11:05.118Z,14.83
2023-05-21T23:21:08.902Z,14.72
2023-05-21T23:31:17.380Z,14.72
2023-05-21T23:41:22.498Z,14.60
2023-05-21T23:51:27.045Z,14.42
